Date,TemperatureHighF,TemperatureAvgF,TemperatureLowF,DewpointHighF,DewpointAvgF,DewpointLowF,HumidityHigh,HumidityAvg,HumidityLow,PressureMaxIn,PressureMinIn,WindSpeedMaxMPH,WindSpeedAvgMPH,GustSpeedMaxMPH,PrecipitationSumIn
2013-2-1,33,22,9,19,12,3,78,65,51,30.54,30.17,10,2,10,0.00
2013-2-2,51,37,24,38,28,16,80,69,59,30.24,30.10,19,3,19,0.03
2013-2-3,50,42,34,33,29,25,78,60,43,30.30,29.95,18,4,18,0.00
2013-2-4,60,48,32,44,34,25,76,60,48,30.01,29.80,24,3,24,0.00
2013-2-5,61,42,24,42,30,20,88,67,43,30.12,29.93,18,2,18,0.00
2013-2-6,58,44,27,40,33,23,86,66,48,30.18,29.92,12,3,12,0.00
2013-2-7,53,48,41,48,42,37,90,82,72,30.08,29.82,10,2,10,0.22
2013-2-8,48,38,32,38,32,27,88,78,61,30.34,30.08,10,2,10,0.00
2013-2-9,42,36,32,35,31,28,90,81,67,30.25,29.87,15,4,15,0.11
2013-2-10,60,49,38,53,38,27,92,70,39,30.00,29.60,34,9,34,0.11
2013-2-11,51,39,28,33,28,21,78,65,49,30.21,30.00,13,4,13,0.00
2013-2-12,46,35,23,34,27,18,86,75,57,30.18,29.91,5,1,5,0.03
2013-2-13,48,37,32,38,32,29,91,82,63,30.00,29.87,15,3,15,0.22
2013-2-14,55,44,32,39,32,24,80,63,49,30.12,29.88,14,4,14,0.00
2013-2-15,43,35,22,32,22,12,78,59,42,30.35,30.12,17,4,17,0.00
2013-2-16,38,30,21,24,20,12,81,66,52,30.37,30.11,13,-350,13,0.00
2013-2-17,63,46,29,36,28,19,67,51,35,30.11,29.80,12,2,12,0.00
2013-2-18,58,48,32,50,38,24,86,71,56,30.09,29.51,30,6,30,0.06
2013-2-19,42,32,22,24,19,13,77,61,41,30.34,30.09,19,5,19,0.00
2013-2-20,34,29,23,16,14,11,69,52,44,30.36,30.13,8,2,8,0.00
2013-2-21,33,30,28,30,25,16,90,81,52,30.14,29.72,13,4,13,0.00
2013-2-22,34,27,20,31,22,16,91,82,73,30.14,29.81,26,7,26,0.06
2013-2-23,40,27,16,28,20,13,89,76,60,30.12,29.96,13,-353,13,0.19
2013-2-24,53,38,20,37,28,16,87,68,51,30.04,29.85,12,3,12,0.00
2013-2-25,46,39,35,33,30,27,88,71,52,29.92,29.42,20,-171,20,0.46
2013-2-26,35,33,32,32,30,29,91,89,87,29.82,29.33,13,-852,13,0.14
2013-2-27,34,32,31,30,28,27,90,86,80,30.08,29.79,21,-373,21,0.03
2013-2-28,34,31,28,28,26,24,86,82,79,30.23,30.00,15,-211,15,0.00